Palmdale Regional/USAF Plant 42 Airport
KPMD : rendu visible

Aérodrome :











RETROUVEZ-NOUS SUR...

 
LOGIN :

S'inscrire | Disclaimer

   EN    FR    IT 

 









Légende :    VFR   VFR Marginal   IFR   IFR Intensif   IFR Très Intensif
Visi : 
Plafond : 
>= 8 km
>= 3000ft
5 à 8 km
1000 à 3000 ft
1500m à 5 km
500 à 1000 ft
800 à 1500m
200 à 500 ft
< 800m
< 200 ft
Symboles :   Orages  Brouillard  Fortes neiges  Fortes précipitations  Vent > 20 kt






- Altitude de l'aérodrome : 2543 ft
- Code IATA : PMD


KPMD - Palmdale Regional/USAF Plant 42

DERNIER METAR :
  • 180853Z AUTO 27003KT 10SM CLR 02/M03 A3030 RMK AO2 SLP261 T00171028 50002

METARs EXPIRÉS :
  • 180753Z AUTO 27003KT 10SM CLR 01/M03 A3030 RMK AO2 SLP265 T00111028 401220006
  • 180653Z AUTO 00000KT 10SM CLR 02/M02 A3030 RMK AO2 SLP265 T00171022

TAF KPMD
Valide du 18 à 06h jusqu'au 19 à 06h UTC


180544Z 1806/1906 VRB03KT P6SM SCT250
FM181800 04009KT P6SM BKN200
FM190100 11006KT P6SM BKN200



MET'MAP, la Météo Aéronautique d'un coup d'oeil ! - Copyright ORBIFLY Décembre 2007 - Disclaimer

ORBIFLY MET'MAP TEAM :

Programmation & Développement : Alexandra Zaïnal
Sur une idée originale de : Baudouin d'Aumeries
Assistance à la programmation : Marc-Olivier Méhu
Soutien technique & logistique : Manuel Goepfert

Contact : metmap@orbifly.com




SOURCES & CREDITS :

   NOAA       Earth
Advisory